EZS1506 LDDU-LSGG
Flight info
| Callsign | EZS1506 |
|---|---|
| Flight time | 1h 31m |
| Altitude | 36000 |
| Route | AMUGO DCT RILIM DCT LURUT DCT EVANO DCT AOSTA/N0421F220 L615 BANKO |
| Aircraft | A320/M-SDE3FGHIRWY/LB1 |
Departure
| Time | 2026-05-04 09:30 |
|---|---|
| Airport | Dubrovnik Ruđer Bošković Airport (LDDU) |
Arrival
| Time | 2026-05-04 11:01 |
|---|---|
| Airport | Geneva International Airport (LSGG) |
| Time | Latitude | Longitude | Altitude | Speed | Heading |
|---|---|---|---|---|---|
| 2026-05-04 09:14 | 42.56167 | 18.26105 | 534 ft | 0 kts | 208° |
| 2026-05-04 09:25 | 42.56236 | 18.26101 | 534 ft | 0 kts | 118° |
| 2026-05-04 09:27 | 42.56215 | 18.26154 | 534 ft | 13 kts | 118° |
| 2026-05-04 09:27 | 42.56155 | 18.26306 | 534 ft | 23 kts | 118° |
| 2026-05-04 09:28 | 42.56068 | 18.26524 | 534 ft | 29 kts | 118° |
| 2026-05-04 09:28 | 42.55972 | 18.26767 | 534 ft | 29 kts | 118° |
| 2026-05-04 09:28 | 42.55878 | 18.27005 | 534 ft | 24 kts | 118° |
| 2026-05-04 09:28 | 42.55805 | 18.27189 | 534 ft | 23 kts | 118° |
| 2026-05-04 09:29 | 42.55770 | 18.27287 | 534 ft | 8 kts | 99° |
| 2026-05-04 09:29 | 42.55820 | 18.27338 | 533 ft | 12 kts | 6° |
| 2026-05-04 09:29 | 42.55899 | 18.27369 | 531 ft | 9 kts | 29° |
| 2026-05-04 09:29 | 42.55935 | 18.27339 | 532 ft | 6 kts | 301° |
| 2026-05-04 09:30 | 42.56014 | 18.27134 | 533 ft | 59 kts | 298° |
| 2026-05-04 09:30 | 42.56319 | 18.26364 | 533 ft | 124 kts | 298° |
| 2026-05-04 09:30 | 42.56793 | 18.25148 | 746 ft | 155 kts | 296° |
| 2026-05-04 09:30 | 42.57307 | 18.23830 | 1477 ft | 160 kts | 297° |
| 2026-05-04 09:31 | 42.57837 | 18.22497 | 2263 ft | 162 kts | 298° |
| 2026-05-04 09:31 | 42.58379 | 18.21146 | 3015 ft | 162 kts | 299° |
| 2026-05-04 09:31 | 42.58928 | 18.19806 | 3713 ft | 159 kts | 300° |
| 2026-05-04 09:31 | 42.59492 | 18.18401 | 4049 ft | 181 kts | 298° |
| 2026-05-04 09:32 | 42.60117 | 18.16815 | 4353 ft | 202 kts | 298° |
| 2026-05-04 09:32 | 42.60826 | 18.15017 | 4609 ft | 229 kts | 299° |
| 2026-05-04 09:34 | 42.67025 | 17.99264 | 10013 ft | 286 kts | 300° |
| 2026-05-04 09:34 | 42.67976 | 17.96843 | 10597 ft | 299 kts | 300° |
| 2026-05-04 09:34 | 42.68970 | 17.94243 | 10915 ft | 321 kts | 296° |
| 2026-05-04 09:34 | 42.69558 | 17.91258 | 11554 ft | 334 kts | 277° |
| 2026-05-04 09:35 | 42.69554 | 17.88058 | 12293 ft | 342 kts | 271° |
| 2026-05-04 09:35 | 42.69471 | 17.84808 | 13041 ft | 347 kts | 270° |
| 2026-05-04 09:35 | 42.69371 | 17.81526 | 13802 ft | 349 kts | 270° |
| 2026-05-04 09:35 | 42.69265 | 17.78216 | 14499 ft | 353 kts | 270° |
| 2026-05-04 09:37 | 42.68494 | 17.54183 | 19106 ft | 372 kts | 271° |
| 2026-05-04 09:37 | 42.68378 | 17.50659 | 19648 ft | 375 kts | 271° |
| 2026-05-04 09:38 | 42.68257 | 17.47094 | 20215 ft | 379 kts | 271° |
| 2026-05-04 09:38 | 42.68132 | 17.43506 | 20775 ft | 382 kts | 271° |
| 2026-05-04 09:38 | 42.68006 | 17.39890 | 21321 ft | 384 kts | 271° |
| 2026-05-04 09:38 | 42.67879 | 17.36248 | 21850 ft | 387 kts | 271° |
| 2026-05-04 09:39 | 42.67757 | 17.32635 | 22364 ft | 389 kts | 271° |
| 2026-05-04 09:39 | 42.67635 | 17.28948 | 22856 ft | 392 kts | 271° |
| 2026-05-04 09:39 | 42.67507 | 17.25190 | 23349 ft | 395 kts | 271° |
| 2026-05-04 09:39 | 42.67379 | 17.21505 | 23821 ft | 397 kts | 271° |
| 2026-05-04 09:40 | 42.67246 | 17.17752 | 24294 ft | 399 kts | 271° |
| 2026-05-04 09:40 | 42.67105 | 17.13974 | 24772 ft | 402 kts | 270° |
| 2026-05-04 09:40 | 42.66956 | 17.10178 | 25227 ft | 403 kts | 271° |
| 2026-05-04 09:40 | 42.66808 | 17.06364 | 25671 ft | 405 kts | 271° |
| 2026-05-04 09:41 | 42.66660 | 17.02538 | 26103 ft | 407 kts | 271° |
| 2026-05-04 09:42 | 42.67862 | 16.75927 | 28918 ft | 403 kts | 299° |
| 2026-05-04 09:43 | 42.69096 | 16.72498 | 29311 ft | 405 kts | 299° |
| 2026-05-04 09:43 | 42.70324 | 16.69054 | 29686 ft | 406 kts | 299° |
| 2026-05-04 09:43 | 42.71548 | 16.65591 | 30051 ft | 407 kts | 298° |
| 2026-05-04 09:43 | 42.72769 | 16.62122 | 30387 ft | 407 kts | 298° |
| 2026-05-04 09:44 | 42.73993 | 16.58639 | 30674 ft | 409 kts | 298° |
| 2026-05-04 09:44 | 42.75224 | 16.55141 | 30973 ft | 411 kts | 298° |
| 2026-05-04 09:44 | 42.76465 | 16.51628 | 31263 ft | 412 kts | 298° |
| 2026-05-04 09:46 | 42.85041 | 16.27136 | 33854 ft | 405 kts | 297° |
| 2026-05-04 09:46 | 42.86247 | 16.23677 | 34220 ft | 403 kts | 297° |
| 2026-05-04 09:46 | 42.87449 | 16.20230 | 34550 ft | 403 kts | 297° |
| 2026-05-04 09:47 | 42.88648 | 16.16791 | 34865 ft | 401 kts | 297° |
| 2026-05-04 09:47 | 42.89845 | 16.13354 | 35157 ft | 401 kts | 297° |
| 2026-05-04 09:49 | 42.98239 | 15.89025 | 36167 ft | 418 kts | 296° |
| 2026-05-04 09:49 | 42.99476 | 15.85416 | 36165 ft | 420 kts | 296° |
| 2026-05-04 09:51 | 43.08178 | 15.59983 | 36165 ft | 422 kts | 296° |
| 2026-05-04 09:51 | 43.10655 | 15.52705 | 36162 ft | 421 kts | 296° |
| 2026-05-04 09:52 | 43.13122 | 15.45438 | 36157 ft | 421 kts | 296° |
| 2026-05-04 09:52 | 43.15587 | 15.38144 | 36159 ft | 423 kts | 296° |
| 2026-05-04 09:53 | 43.18050 | 15.30830 | 36158 ft | 423 kts | 295° |
| 2026-05-04 09:53 | 43.20513 | 15.23513 | 36155 ft | 423 kts | 295° |
| 2026-05-04 09:54 | 43.22971 | 15.16177 | 36154 ft | 423 kts | 295° |
| 2026-05-04 09:54 | 43.25427 | 15.08824 | 36157 ft | 424 kts | 295° |
| 2026-05-04 09:55 | 43.27889 | 15.01464 | 36156 ft | 424 kts | 295° |
| 2026-05-04 09:55 | 43.30334 | 14.94118 | 36148 ft | 424 kts | 295° |
| 2026-05-04 09:56 | 43.32783 | 14.86744 | 36145 ft | 424 kts | 295° |
| 2026-05-04 09:56 | 43.35216 | 14.79366 | 36138 ft | 424 kts | 295° |
| 2026-05-04 09:57 | 43.37644 | 14.71998 | 36138 ft | 424 kts | 295° |
| 2026-05-04 09:57 | 43.40077 | 14.64612 | 36141 ft | 424 kts | 294° |
| 2026-05-04 09:58 | 43.42509 | 14.57212 | 36144 ft | 425 kts | 294° |
| 2026-05-04 09:58 | 43.44941 | 14.49790 | 36144 ft | 426 kts | 294° |
| 2026-05-04 10:00 | 43.54629 | 14.20000 | 36130 ft | 426 kts | 294° |
| 2026-05-04 10:04 | 43.71464 | 13.67301 | 36148 ft | 429 kts | 293° |
| 2026-05-04 10:04 | 43.73868 | 13.59737 | 36147 ft | 430 kts | 293° |
| 2026-05-04 10:05 | 43.76265 | 13.52166 | 36148 ft | 430 kts | 293° |
| 2026-05-04 10:05 | 43.78648 | 13.44583 | 36147 ft | 430 kts | 293° |
| 2026-05-04 10:06 | 43.81022 | 13.36992 | 36149 ft | 431 kts | 292° |
| 2026-05-04 10:06 | 43.82996 | 13.30678 | 36147 ft | 430 kts | 292° |
| 2026-05-04 10:08 | 43.91246 | 13.04146 | 36123 ft | 430 kts | 292° |
| 2026-05-04 10:08 | 43.93600 | 12.96512 | 36122 ft | 430 kts | 292° |
| 2026-05-04 10:09 | 43.95955 | 12.88866 | 36130 ft | 431 kts | 292° |
| 2026-05-04 10:09 | 43.98310 | 12.81192 | 36126 ft | 432 kts | 292° |
| 2026-05-04 10:10 | 44.00654 | 12.73504 | 36123 ft | 432 kts | 292° |
| 2026-05-04 10:10 | 44.03002 | 12.65807 | 36117 ft | 433 kts | 292° |
| 2026-05-04 10:11 | 44.05359 | 12.58090 | 36120 ft | 434 kts | 292° |
| 2026-05-04 10:11 | 44.07706 | 12.50339 | 36114 ft | 436 kts | 291° |
| 2026-05-04 10:12 | 44.10052 | 12.42560 | 36112 ft | 436 kts | 291° |
| 2026-05-04 10:12 | 44.12400 | 12.34779 | 36124 ft | 436 kts | 291° |
| 2026-05-04 10:13 | 44.14747 | 12.26990 | 36122 ft | 436 kts | 291° |
| 2026-05-04 10:13 | 44.17084 | 12.19195 | 36118 ft | 436 kts | 291° |
| 2026-05-04 10:14 | 44.19411 | 12.11377 | 36122 ft | 437 kts | 291° |
| 2026-05-04 10:16 | 44.28716 | 11.79979 | 36144 ft | 438 kts | 291° |
| 2026-05-04 10:16 | 44.31021 | 11.72104 | 36145 ft | 438 kts | 291° |
| 2026-05-04 10:17 | 44.33334 | 11.64227 | 36138 ft | 438 kts | 291° |
| 2026-05-04 10:19 | 44.42504 | 11.32708 | 36109 ft | 438 kts | 290° |
| 2026-05-04 10:19 | 44.44786 | 11.24788 | 36098 ft | 439 kts | 290° |
| 2026-05-04 10:20 | 44.47073 | 11.16855 | 36101 ft | 439 kts | 290° |
| 2026-05-04 10:20 | 44.49353 | 11.08900 | 36107 ft | 440 kts | 290° |
| 2026-05-04 10:21 | 44.51629 | 11.00928 | 36111 ft | 442 kts | 290° |
| 2026-05-04 10:21 | 44.54333 | 10.93174 | 36131 ft | 444 kts | 296° |
| 2026-05-04 10:22 | 44.58689 | 10.81722 | 36151 ft | 443 kts | 296° |
| 2026-05-04 10:23 | 44.61579 | 10.74086 | 36152 ft | 443 kts | 296° |
| 2026-05-04 10:25 | 44.73095 | 10.43452 | 36146 ft | 444 kts | 296° |
| 2026-05-04 10:25 | 44.75962 | 10.35765 | 36130 ft | 444 kts | 296° |
| 2026-05-04 10:26 | 44.78828 | 10.28058 | 36118 ft | 444 kts | 296° |
| 2026-05-04 10:26 | 44.81688 | 10.20337 | 36115 ft | 445 kts | 296° |
| 2026-05-04 10:27 | 44.84550 | 10.12611 | 36114 ft | 445 kts | 296° |
| 2026-05-04 10:27 | 44.87405 | 10.04876 | 36122 ft | 445 kts | 295° |
| 2026-05-04 10:28 | 44.90253 | 9.97125 | 36123 ft | 444 kts | 295° |
| 2026-05-04 10:28 | 44.93095 | 9.89388 | 36124 ft | 444 kts | 295° |
| 2026-05-04 10:29 | 44.95931 | 9.81639 | 36132 ft | 444 kts | 295° |
| 2026-05-04 10:29 | 44.98756 | 9.73884 | 36122 ft | 444 kts | 295° |
| 2026-05-04 10:30 | 45.01584 | 9.66119 | 36129 ft | 445 kts | 295° |
| 2026-05-04 10:30 | 45.04413 | 9.58343 | 36136 ft | 444 kts | 295° |
| 2026-05-04 10:31 | 45.07231 | 9.50561 | 36129 ft | 444 kts | 295° |
| 2026-05-04 10:32 | 45.17013 | 9.23293 | 36126 ft | 443 kts | 295° |
| 2026-05-04 10:33 | 45.19805 | 9.15506 | 36129 ft | 444 kts | 294° |
| 2026-05-04 10:33 | 45.22586 | 9.07701 | 36134 ft | 444 kts | 294° |
| 2026-05-04 10:34 | 45.25359 | 8.99888 | 36122 ft | 442 kts | 294° |
| 2026-05-04 10:34 | 45.28123 | 8.92078 | 36126 ft | 444 kts | 294° |
| 2026-05-04 10:35 | 45.30885 | 8.84248 | 36128 ft | 443 kts | 294° |
| 2026-05-04 10:35 | 45.33640 | 8.76418 | 36126 ft | 443 kts | 294° |
| 2026-05-04 10:36 | 45.36334 | 8.68521 | 36142 ft | 444 kts | 292° |
| 2026-05-04 10:36 | 45.38921 | 8.60626 | 36145 ft | 443 kts | 292° |
| 2026-05-04 10:37 | 45.41521 | 8.52669 | 36148 ft | 443 kts | 292° |
| 2026-05-04 10:37 | 45.44138 | 8.44730 | 36145 ft | 443 kts | 292° |
| 2026-05-04 10:39 | 45.53270 | 8.16863 | 36134 ft | 443 kts | 292° |
| 2026-05-04 10:40 | 45.55870 | 8.08879 | 36144 ft | 444 kts | 292° |
| 2026-05-04 10:40 | 45.58464 | 8.00886 | 36146 ft | 444 kts | 292° |
| 2026-05-04 10:41 | 45.61053 | 7.92877 | 36150 ft | 444 kts | 292° |
| 2026-05-04 10:41 | 45.63632 | 7.84885 | 36149 ft | 442 kts | 292° |
| 2026-05-04 10:42 | 45.66206 | 7.76877 | 36144 ft | 443 kts | 291° |
| 2026-05-04 10:42 | 45.68762 | 7.68866 | 36145 ft | 443 kts | 291° |
| 2026-05-04 10:43 | 45.71317 | 7.60851 | 36144 ft | 443 kts | 291° |
| 2026-05-04 10:44 | 45.79735 | 7.32558 | 34933 ft | 438 kts | 278° |
| 2026-05-04 10:45 | 45.80167 | 7.28251 | 34681 ft | 436 kts | 274° |
| 2026-05-04 10:45 | 45.80513 | 7.23932 | 34428 ft | 437 kts | 274° |
| 2026-05-04 10:45 | 45.80863 | 7.19601 | 34013 ft | 438 kts | 273° |
| 2026-05-04 10:45 | 45.81212 | 7.15246 | 33010 ft | 442 kts | 273° |
| 2026-05-04 10:46 | 45.81600 | 7.10855 | 31955 ft | 448 kts | 277° |
| 2026-05-04 10:46 | 45.82396 | 7.06478 | 30928 ft | 458 kts | 286° |
| 2026-05-04 10:46 | 45.83674 | 7.02269 | 29791 ft | 467 kts | 295° |
| 2026-05-04 10:46 | 45.85428 | 6.98288 | 28604 ft | 476 kts | 301° |
| 2026-05-04 10:47 | 45.87308 | 6.94377 | 27456 ft | 478 kts | 301° |
| 2026-05-04 10:47 | 45.89197 | 6.90426 | 26192 ft | 482 kts | 301° |
| 2026-05-04 10:47 | 45.91095 | 6.86445 | 24905 ft | 485 kts | 301° |
| 2026-05-04 10:47 | 45.93000 | 6.82434 | 23661 ft | 487 kts | 301° |
| 2026-05-04 10:49 | 46.04985 | 6.56686 | 18323 ft | 446 kts | 300° |
| 2026-05-04 10:49 | 46.06692 | 6.52996 | 17681 ft | 438 kts | 301° |
| 2026-05-04 10:50 | 46.08362 | 6.49451 | 17528 ft | 418 kts | 301° |
| 2026-05-04 10:51 | 46.19578 | 6.30271 | 15701 ft | 333 kts | 348° |
| 2026-05-04 10:52 | 46.21872 | 6.30321 | 15096 ft | 331 kts | 13° |
| 2026-05-04 10:52 | 46.23940 | 6.31693 | 14473 ft | 327 kts | 38° |
| 2026-05-04 10:52 | 46.25574 | 6.33940 | 13838 ft | 326 kts | 47° |
| 2026-05-04 10:54 | 46.36334 | 6.49867 | 11683 ft | 304 kts | 47° |
| 2026-05-04 10:54 | 46.37933 | 6.51799 | 11552 ft | 298 kts | 28° |
| 2026-05-04 10:56 | 46.44406 | 6.40767 | 8101 ft | 275 kts | 217° |
| 2026-05-04 10:56 | 46.42895 | 6.39069 | 7365 ft | 275 kts | 220° |
| 2026-05-04 10:56 | 46.41525 | 6.37115 | 6624 ft | 277 kts | 225° |
| 2026-05-04 10:57 | 46.40201 | 6.35098 | 5888 ft | 276 kts | 225° |
| 2026-05-04 10:57 | 46.38865 | 6.33105 | 5253 ft | 273 kts | 225° |
| 2026-05-04 10:57 | 46.37569 | 6.31190 | 4858 ft | 260 kts | 224° |
| 2026-05-04 10:57 | 46.36339 | 6.29371 | 4518 ft | 246 kts | 225° |
| 2026-05-04 10:58 | 46.35176 | 6.27651 | 4203 ft | 231 kts | 224° |
| 2026-05-04 10:58 | 46.34079 | 6.26033 | 3892 ft | 220 kts | 224° |
| 2026-05-04 10:58 | 46.33032 | 6.24487 | 3613 ft | 210 kts | 225° |
| 2026-05-04 10:58 | 46.32042 | 6.23027 | 3330 ft | 200 kts | 225° |
| 2026-05-04 10:59 | 46.31070 | 6.21593 | 3090 ft | 195 kts | 224° |
| 2026-05-04 10:59 | 46.30166 | 6.20257 | 2840 ft | 182 kts | 224° |
| 2026-05-04 10:59 | 46.29299 | 6.18978 | 2590 ft | 170 kts | 224° |
| 2026-05-04 10:59 | 46.28498 | 6.17800 | 2373 ft | 164 kts | 225° |
| 2026-05-04 11:00 | 46.27711 | 6.16641 | 2174 ft | 157 kts | 225° |
| 2026-05-04 11:01 | 46.23912 | 6.11084 | 1379 ft | 9 kts | 202° |
| 2026-05-04 11:02 | 46.23850 | 6.11068 | 1378 ft | 11 kts | 178° |
| 2026-05-04 11:02 | 46.23762 | 6.11087 | 1382 ft | 13 kts | 171° |
| 2026-05-04 11:05 | 46.22977 | 6.10496 | 1393 ft | 0 kts | 135° |